sensor_id;sensor_type;location;lat;lon;timestamp;temperature;humidity
26503;DHT22;14177;51.520;6.764;2023-10-08T00:01:04;18.30;99.90
26503;DHT22;14177;51.520;6.764;2023-10-08T00:03:33;18.30;99.90
26503;DHT22;14177;51.520;6.764;2023-10-08T00:06:03;18.20;99.90
26503;DHT22;14177;51.520;6.764;2023-10-08T00:08:34;18.20;99.90
26503;DHT22;14177;51.520;6.764;2023-10-08T00:11:01;18.20;99.90
26503;DHT22;14177;51.520;6.764;2023-10-08T00:13:37;18.20;99.90
26503;DHT22;14177;51.520;6.764;2023-10-08T00:16:08;18.20;99.90
26503;DHT22;14177;51.520;6.764;2023-10-08T00:18:38;18.20;99.90
26503;DHT22;14177;51.520;6.764;2023-10-08T00:21:07;18.10;99.90
26503;DHT22;14177;51.520;6.764;2023-10-08T00:23:37;18.10;99.90
26503;DHT22;14177;51.520;6.764;2023-10-08T00:26:16;18.10;99.90
26503;DHT22;14177;51.520;6.764;2023-10-08T00:28:48;18.10;99.90
26503;DHT22;14177;51.520;6.764;2023-10-08T00:31:18;18.10;99.90
26503;DHT22;14177;51.520;6.764;2023-10-08T00:33:45;18.10;99.90
26503;DHT22;14177;51.520;6.764;2023-10-08T00:36:12;18.00;99.90
26503;DHT22;14177;51.520;6.764;2023-10-08T00:38:48;18.10;99.90
26503;DHT22;14177;51.520;6.764;2023-10-08T00:41:22;18.10;99.90
26503;DHT22;14177;51.520;6.764;2023-10-08T00:43:49;18.00;99.90
26503;DHT22;14177;51.520;6.764;2023-10-08T00:46:17;18.00;99.90
26503;DHT22;14177;51.520;6.764;2023-10-08T00:48:54;18.00;99.90
26503;DHT22;14177;51.520;6.764;2023-10-08T00:51:23;18.00;99.90
26503;DHT22;14177;51.520;6.764;2023-10-08T00:54:03;18.00;99.90
26503;DHT22;14177;51.520;6.764;2023-10-08T00:56:35;17.90;99.90
26503;DHT22;14177;51.520;6.764;2023-10-08T00:59:21;17.90;99.90
26503;DHT22;14177;51.520;6.764;2023-10-08T01:01:51;17.90;99.90
26503;DHT22;14177;51.520;6.764;2023-10-08T01:04:22;17.80;99.90
26503;DHT22;14177;51.520;6.764;2023-10-08T01:06:57;17.80;99.90
26503;DHT22;14177;51.520;6.764;2023-10-08T01:09:40;17.80;99.90
26503;DHT22;14177;51.520;6.764;2023-10-08T01:14:39;17.80;99.90
26503;DHT22;14177;51.520;6.764;2023-10-08T01:17:13;17.70;99.90
26503;DHT22;14177;51.520;6.764;2023-10-08T01:19:45;17.70;99.90
26503;DHT22;14177;51.520;6.764;2023-10-08T01:22:21;17.70;99.90
26503;DHT22;14177;51.520;6.764;2023-10-08T01:24:49;17.70;99.90
26503;DHT22;14177;51.520;6.764;2023-10-08T01:27:19;17.60;99.90
26503;DHT22;14177;51.520;6.764;2023-10-08T01:29:49;17.60;99.90
26503;DHT22;14177;51.520;6.764;2023-10-08T01:32:18;17.60;99.90
26503;DHT22;14177;51.520;6.764;2023-10-08T01:34:48;17.50;99.90
26503;DHT22;14177;51.520;6.764;2023-10-08T01:37:17;17.50;99.90
26503;DHT22;14177;51.520;6.764;2023-10-08T01:39:46;17.50;99.90
26503;DHT22;14177;51.520;6.764;2023-10-08T01:42:17;17.50;99.90
26503;DHT22;14177;51.520;6.764;2023-10-08T01:44:49;17.50;99.90
26503;DHT22;14177;51.520;6.764;2023-10-08T01:47:22;17.50;99.90
26503;DHT22;14177;51.520;6.764;2023-10-08T01:49:52;17.50;99.90
26503;DHT22;14177;51.520;6.764;2023-10-08T01:52:27;17.50;99.90
26503;DHT22;14177;51.520;6.764;2023-10-08T01:54:56;17.50;99.90
26503;DHT22;14177;51.520;6.764;2023-10-08T01:57:24;17.50;99.90
26503;DHT22;14177;51.520;6.764;2023-10-08T01:59:50;17.40;99.90
26503;DHT22;14177;51.520;6.764;2023-10-08T02:02:17;17.40;99.90
26503;DHT22;14177;51.520;6.764;2023-10-08T02:04:44;17.40;99.90
26503;DHT22;14177;51.520;6.764;2023-10-08T02:07:11;17.40;99.90
26503;DHT22;14177;51.520;6.764;2023-10-08T02:09:40;17.40;99.90
26503;DHT22;14177;51.520;6.764;2023-10-08T02:12:08;17.40;99.90
26503;DHT22;14177;51.520;6.764;2023-10-08T02:14:35;17.30;99.90
26503;DHT22;14177;51.520;6.764;2023-10-08T02:17:03;17.30;99.90
26503;DHT22;14177;51.520;6.764;2023-10-08T02:19:33;17.30;99.90
26503;DHT22;14177;51.520;6.764;2023-10-08T02:22:01;17.30;99.90
26503;DHT22;14177;51.520;6.764;2023-10-08T02:24:30;17.30;99.90
26503;DHT22;14177;51.520;6.764;2023-10-08T02:26:57;17.30;99.90
26503;DHT22;14177;51.520;6.764;2023-10-08T02:29:28;17.20;99.90
26503;DHT22;14177;51.520;6.764;2023-10-08T02:31:57;17.20;99.90
26503;DHT22;14177;51.520;6.764;2023-10-08T02:34:26;17.30;99.90
26503;DHT22;14177;51.520;6.764;2023-10-08T02:36:53;17.30;99.90
26503;DHT22;14177;51.520;6.764;2023-10-08T02:39:21;17.30;99.90
26503;DHT22;14177;51.520;6.764;2023-10-08T02:41:53;17.30;99.90
26503;DHT22;14177;51.520;6.764;2023-10-08T02:44:24;17.30;99.90
26503;DHT22;14177;51.520;6.764;2023-10-08T02:46:51;17.20;99.90
26503;DHT22;14177;51.520;6.764;2023-10-08T02:49:20;17.20;99.90
26503;DHT22;14177;51.520;6.764;2023-10-08T02:51:52;17.20;99.90
26503;DHT22;14177;51.520;6.764;2023-10-08T02:54:21;17.20;99.90
26503;DHT22;14177;51.520;6.764;2023-10-08T02:56:59;17.20;99.90
26503;DHT22;14177;51.520;6.764;2023-10-08T02:59:32;17.10;99.90
26503;DHT22;14177;51.520;6.764;2023-10-08T03:02:08;17.10;99.90
26503;DHT22;14177;51.520;6.764;2023-10-08T03:04:51;17.10;99.90
26503;DHT22;14177;51.520;6.764;2023-10-08T03:07:20;17.00;99.90
26503;DHT22;14177;51.520;6.764;2023-10-08T03:09:59;17.00;99.90
26503;DHT22;14177;51.520;6.764;2023-10-08T03:12:46;17.00;99.90
26503;DHT22;14177;51.520;6.764;2023-10-08T03:15:15;17.00;99.90
26503;DHT22;14177;51.520;6.764;2023-10-08T03:18:04;17.00;99.90
26503;DHT22;14177;51.520;6.764;2023-10-08T03:20:37;17.00;99.90
26503;DHT22;14177;51.520;6.764;2023-10-08T03:23:06;16.90;99.90
26503;DHT22;14177;51.520;6.764;2023-10-08T03:25:39;16.90;99.90
26503;DHT22;14177;51.520;6.764;2023-10-08T03:28:09;16.90;99.90
26503;DHT22;14177;51.520;6.764;2023-10-08T03:30:40;16.90;99.90
26503;DHT22;14177;51.520;6.764;2023-10-08T03:33:17;16.80;99.90
26503;DHT22;14177;51.520;6.764;2023-10-08T03:35:52;16.80;99.90
26503;DHT22;14177;51.520;6.764;2023-10-08T03:38:19;16.80;99.90
26503;DHT22;14177;51.520;6.764;2023-10-08T03:41:07;16.70;99.90
26503;DHT22;14177;51.520;6.764;2023-10-08T03:43:36;16.70;99.90
26503;DHT22;14177;51.520;6.764;2023-10-08T03:46:14;16.70;99.90
26503;DHT22;14177;51.520;6.764;2023-10-08T03:48:44;16.70;99.90
26503;DHT22;14177;51.520;6.764;2023-10-08T03:51:12;16.70;99.90
26503;DHT22;14177;51.520;6.764;2023-10-08T03:53:39;16.70;99.90
26503;DHT22;14177;51.520;6.764;2023-10-08T03:56:26;16.70;99.90
26503;DHT22;14177;51.520;6.764;2023-10-08T03:58:58;16.70;99.90
26503;DHT22;14177;51.520;6.764;2023-10-08T04:01:32;16.60;99.90
26503;DHT22;14177;51.520;6.764;2023-10-08T04:04:01;16.60;99.90
26503;DHT22;14177;51.520;6.764;2023-10-08T04:06:29;16.60;99.90
26503;DHT22;14177;51.520;6.764;2023-10-08T04:09:02;16.60;99.90
26503;DHT22;14177;51.520;6.764;2023-10-08T04:11:35;16.60;99.90
26503;DHT22;14177;51.520;6.764;2023-10-08T04:14:10;16.60;99.90
26503;DHT22;14177;51.520;6.764;2023-10-08T04:16:37;16.50;99.90
26503;DHT22;14177;51.520;6.764;2023-10-08T04:19:04;16.50;99.90
26503;DHT22;14177;51.520;6.764;2023-10-08T04:21:31;16.40;99.90
26503;DHT22;14177;51.520;6.764;2023-10-08T04:24:01;16.40;99.90
26503;DHT22;14177;51.520;6.764;2023-10-08T04:26:32;16.30;99.90
26503;DHT22;14177;51.520;6.764;2023-10-08T04:29:01;16.30;99.90
26503;DHT22;14177;51.520;6.764;2023-10-08T04:31:34;16.30;99.90
26503;DHT22;14177;51.520;6.764;2023-10-08T04:34:10;16.30;99.90
26503;DHT22;14177;51.520;6.764;2023-10-08T04:36:47;16.30;99.90
26503;DHT22;14177;51.520;6.764;2023-10-08T04:39:21;16.30;99.90
26503;DHT22;14177;51.520;6.764;2023-10-08T04:41:49;16.40;99.90
26503;DHT22;14177;51.520;6.764;2023-10-08T04:44:21;16.30;99.90
26503;DHT22;14177;51.520;6.764;2023-10-08T04:46:48;16.30;99.90
26503;DHT22;14177;51.520;6.764;2023-10-08T04:49:19;16.30;99.90
26503;DHT22;14177;51.520;6.764;2023-10-08T04:52:06;16.30;99.90
26503;DHT22;14177;51.520;6.764;2023-10-08T04:54:45;16.30;99.90
26503;DHT22;14177;51.520;6.764;2023-10-08T04:57:18;16.30;99.90
26503;DHT22;14177;51.520;6.764;2023-10-08T04:59:49;16.30;99.90
26503;DHT22;14177;51.520;6.764;2023-10-08T05:02:17;16.30;99.90
26503;DHT22;14177;51.520;6.764;2023-10-08T05:05:16;16.30;99.90
26503;DHT22;14177;51.520;6.764;2023-10-08T05:07:43;16.30;99.90
26503;DHT22;14177;51.520;6.764;2023-10-08T05:10:14;16.30;99.90
26503;DHT22;14177;51.520;6.764;2023-10-08T05:12:51;16.30;99.90
26503;DHT22;14177;51.520;6.764;2023-10-08T05:15:30;16.20;99.90
26503;DHT22;14177;51.520;6.764;2023-10-08T05:18:08;16.30;99.90
26503;DHT22;14177;51.520;6.764;2023-10-08T05:20:40;16.30;99.90
26503;DHT22;14177;51.520;6.764;2023-10-08T05:23:19;16.20;99.90
26503;DHT22;14177;51.520;6.764;2023-10-08T05:25:57;16.20;99.90
26503;DHT22;14177;51.520;6.764;2023-10-08T05:28:25;16.20;99.90
26503;DHT22;14177;51.520;6.764;2023-10-08T05:30:52;16.20;99.90
26503;DHT22;14177;51.520;6.764;2023-10-08T05:33:21;16.20;99.90
26503;DHT22;14177;51.520;6.764;2023-10-08T05:35:52;16.10;99.90
26503;DHT22;14177;51.520;6.764;2023-10-08T05:38:44;16.10;99.90
26503;DHT22;14177;51.520;6.764;2023-10-08T05:41:30;16.10;99.90
26503;DHT22;14177;51.520;6.764;2023-10-08T05:44:19;16.10;99.90
26503;DHT22;14177;51.520;6.764;2023-10-08T05:46:46;16.10;99.90
26503;DHT22;14177;51.520;6.764;2023-10-08T05:49:18;16.00;99.90
26503;DHT22;14177;51.520;6.764;2023-10-08T05:51:57;16.00;99.90
26503;DHT22;14177;51.520;6.764;2023-10-08T05:54:40;16.10;99.90
26503;DHT22;14177;51.520;6.764;2023-10-08T05:57:27;16.10;99.90
26503;DHT22;14177;51.520;6.764;2023-10-08T06:00:06;16.10;99.90
26503;DHT22;14177;51.520;6.764;2023-10-08T06:02:34;16.10;99.90
26503;DHT22;14177;51.520;6.764;2023-10-08T06:05:06;16.10;99.90
26503;DHT22;14177;51.520;6.764;2023-10-08T06:07:53;16.00;99.90
26503;DHT22;14177;51.520;6.764;2023-10-08T06:10:26;16.00;99.90
26503;DHT22;14177;51.520;6.764;2023-10-08T06:13:09;16.10;99.90
26503;DHT22;14177;51.520;6.764;2023-10-08T06:18:18;16.10;99.90
26503;DHT22;14177;51.520;6.764;2023-10-08T06:20:47;16.10;99.90
26503;DHT22;14177;51.520;6.764;2023-10-08T06:23:17;16.10;99.90
26503;DHT22;14177;51.520;6.764;2023-10-08T06:25:47;16.10;99.90
26503;DHT22;14177;51.520;6.764;2023-10-08T06:28:21;16.10;99.90
26503;DHT22;14177;51.520;6.764;2023-10-08T06:30:49;16.10;99.90
26503;DHT22;14177;51.520;6.764;2023-10-08T06:33:21;16.10;99.90
26503;DHT22;14177;51.520;6.764;2023-10-08T06:35:49;16.20;99.90
26503;DHT22;14177;51.520;6.764;2023-10-08T06:38:41;16.20;99.90
26503;DHT22;14177;51.520;6.764;2023-10-08T06:41:11;16.20;99.90
26503;DHT22;14177;51.520;6.764;2023-10-08T06:43:46;16.20;99.90
26503;DHT22;14177;51.520;6.764;2023-10-08T06:46:29;16.20;99.90
26503;DHT22;14177;51.520;6.764;2023-10-08T06:49:01;16.20;99.90
26503;DHT22;14177;51.520;6.764;2023-10-08T06:51:31;16.30;99.90
26503;DHT22;14177;51.520;6.764;2023-10-08T06:54:00;16.30;99.90
26503;DHT22;14177;51.520;6.764;2023-10-08T06:56:30;16.30;99.90
26503;DHT22;14177;51.520;6.764;2023-10-08T06:58:58;16.30;99.90
26503;DHT22;14177;51.520;6.764;2023-10-08T07:01:26;16.30;99.90
26503;DHT22;14177;51.520;6.764;2023-10-08T07:04:06;16.30;99.90
26503;DHT22;14177;51.520;6.764;2023-10-08T07:06:40;16.30;99.90
26503;DHT22;14177;51.520;6.764;2023-10-08T07:09:11;16.20;99.90
26503;DHT22;14177;51.520;6.764;2023-10-08T07:11:54;16.30;99.90
26503;DHT22;14177;51.520;6.764;2023-10-08T07:14:23;16.30;99.90
26503;DHT22;14177;51.520;6.764;2023-10-08T07:16:58;16.30;99.90
26503;DHT22;14177;51.520;6.764;2023-10-08T07:19:28;16.30;99.90
26503;DHT22;14177;51.520;6.764;2023-10-08T07:22:07;16.30;99.90
26503;DHT22;14177;51.520;6.764;2023-10-08T07:24:46;16.30;99.90
26503;DHT22;14177;51.520;6.764;2023-10-08T07:27:21;16.40;99.90
26503;DHT22;14177;51.520;6.764;2023-10-08T07:29:49;16.40;99.90
26503;DHT22;14177;51.520;6.764;2023-10-08T07:32:17;16.40;99.90
26503;DHT22;14177;51.520;6.764;2023-10-08T07:34:45;16.50;99.90
26503;DHT22;14177;51.520;6.764;2023-10-08T07:37:12;16.50;99.90
26503;DHT22;14177;51.520;6.764;2023-10-08T07:39:40;16.50;99.90
26503;DHT22;14177;51.520;6.764;2023-10-08T07:42:13;16.60;99.90
26503;DHT22;14177;51.520;6.764;2023-10-08T07:44:43;16.60;99.90
26503;DHT22;14177;51.520;6.764;2023-10-08T07:47:27;16.70;99.90
26503;DHT22;14177;51.520;6.764;2023-10-08T07:49:54;16.60;99.90
26503;DHT22;14177;51.520;6.764;2023-10-08T07:52:21;16.70;99.90
26503;DHT22;14177;51.520;6.764;2023-10-08T07:54:49;16.70;99.90
26503;DHT22;14177;51.520;6.764;2023-10-08T07:57:16;16.70;99.90
26503;DHT22;14177;51.520;6.764;2023-10-08T07:59:52;16.70;99.90
26503;DHT22;14177;51.520;6.764;2023-10-08T08:02:37;16.80;99.90
26503;DHT22;14177;51.520;6.764;2023-10-08T08:05:05;16.80;99.90
26503;DHT22;14177;51.520;6.764;2023-10-08T08:07:32;16.90;99.90
26503;DHT22;14177;51.520;6.764;2023-10-08T08:09:59;16.90;99.90
26503;DHT22;14177;51.520;6.764;2023-10-08T08:12:28;17.00;99.90
26503;DHT22;14177;51.520;6.764;2023-10-08T08:14:55;16.90;99.90
26503;DHT22;14177;51.520;6.764;2023-10-08T08:17:22;17.00;99.90
26503;DHT22;14177;51.520;6.764;2023-10-08T08:19:51;17.00;99.90
26503;DHT22;14177;51.520;6.764;2023-10-08T08:22:21;17.00;99.90
26503;DHT22;14177;51.520;6.764;2023-10-08T08:24:53;17.00;99.90
26503;DHT22;14177;51.520;6.764;2023-10-08T08:27:44;16.90;99.90
26503;DHT22;14177;51.520;6.764;2023-10-08T08:30:15;16.90;99.90
26503;DHT22;14177;51.520;6.764;2023-10-08T08:32:44;16.80;99.90
26503;DHT22;14177;51.520;6.764;2023-10-08T08:35:19;16.70;99.90
26503;DHT22;14177;51.520;6.764;2023-10-08T08:37:47;16.60;99.90
26503;DHT22;14177;51.520;6.764;2023-10-08T08:40:18;16.50;99.90
26503;DHT22;14177;51.520;6.764;2023-10-08T08:42:48;16.50;99.90
26503;DHT22;14177;51.520;6.764;2023-10-08T08:45:20;16.50;99.90
26503;DHT22;14177;51.520;6.764;2023-10-08T08:47:54;16.50;99.90
26503;DHT22;14177;51.520;6.764;2023-10-08T08:50:22;16.40;99.90
26503;DHT22;14177;51.520;6.764;2023-10-08T08:52:50;16.40;99.90
26503;DHT22;14177;51.520;6.764;2023-10-08T08:55:18;16.40;99.90
26503;DHT22;14177;51.520;6.764;2023-10-08T08:57:48;16.40;99.90
26503;DHT22;14177;51.520;6.764;2023-10-08T09:00:18;16.40;99.90
26503;DHT22;14177;51.520;6.764;2023-10-08T09:02:48;16.40;99.90
26503;DHT22;14177;51.520;6.764;2023-10-08T09:05:17;16.30;99.90
26503;DHT22;14177;51.520;6.764;2023-10-08T09:08:10;16.30;99.90
26503;DHT22;14177;51.520;6.764;2023-10-08T09:10:38;16.20;99.90
26503;DHT22;14177;51.520;6.764;2023-10-08T09:13:21;16.20;99.90
26503;DHT22;14177;51.520;6.764;2023-10-08T09:15:50;16.20;99.90
26503;DHT22;14177;51.520;6.764;2023-10-08T09:18:23;16.10;99.90
26503;DHT22;14177;51.520;6.764;2023-10-08T09:20:50;16.00;99.90
26503;DHT22;14177;51.520;6.764;2023-10-08T09:23:18;16.00;99.90
26503;DHT22;14177;51.520;6.764;2023-10-08T09:25:48;16.00;99.90
26503;DHT22;14177;51.520;6.764;2023-10-08T09:28:17;16.00;99.90
26503;DHT22;14177;51.520;6.764;2023-10-08T09:30:45;16.00;99.90
26503;DHT22;14177;51.520;6.764;2023-10-08T09:33:13;16.10;99.90
26503;DHT22;14177;51.520;6.764;2023-10-08T09:35:46;16.00;99.90
26503;DHT22;14177;51.520;6.764;2023-10-08T09:38:15;16.00;99.90
26503;DHT22;14177;51.520;6.764;2023-10-08T09:40:51;16.00;99.90
26503;DHT22;14177;51.520;6.764;2023-10-08T09:43:19;16.00;99.90
26503;DHT22;14177;51.520;6.764;2023-10-08T09:45:52;16.00;99.90
26503;DHT22;14177;51.520;6.764;2023-10-08T09:48:25;16.00;99.90
26503;DHT22;14177;51.520;6.764;2023-10-08T09:50:55;16.00;99.90
26503;DHT22;14177;51.520;6.764;2023-10-08T09:53:52;16.00;99.90
26503;DHT22;14177;51.520;6.764;2023-10-08T09:56:28;16.10;99.90
26503;DHT22;14177;51.520;6.764;2023-10-08T09:58:58;16.10;99.90
26503;DHT22;14177;51.520;6.764;2023-10-08T10:01:26;16.10;99.90
26503;DHT22;14177;51.520;6.764;2023-10-08T10:03:53;16.10;99.90
26503;DHT22;14177;51.520;6.764;2023-10-08T10:06:22;16.10;99.90
26503;DHT22;14177;51.520;6.764;2023-10-08T10:08:49;16.10;99.90
26503;DHT22;14177;51.520;6.764;2023-10-08T10:11:16;16.10;99.90
26503;DHT22;14177;51.520;6.764;2023-10-08T10:13:45;16.10;99.90
26503;DHT22;14177;51.520;6.764;2023-10-08T10:16:21;16.10;99.90
26503;DHT22;14177;51.520;6.764;2023-10-08T10:18:49;16.00;99.90
26503;DHT22;14177;51.520;6.764;2023-10-08T10:23:48;15.90;99.90
26503;DHT22;14177;51.520;6.764;2023-10-08T10:26:24;16.00;99.90
26503;DHT22;14177;51.520;6.764;2023-10-08T10:31:39;16.20;99.90
26503;DHT22;14177;51.520;6.764;2023-10-08T10:34:25;16.20;99.90
26503;DHT22;14177;51.520;6.764;2023-10-08T10:36:58;16.10;99.90
26503;DHT22;14177;51.520;6.764;2023-10-08T10:39:29;16.00;99.90
26503;DHT22;14177;51.520;6.764;2023-10-08T10:42:01;16.00;99.90
26503;DHT22;14177;51.520;6.764;2023-10-08T10:44:31;16.00;99.90
26503;DHT22;14177;51.520;6.764;2023-10-08T10:46:59;16.00;99.90
26503;DHT22;14177;51.520;6.764;2023-10-08T10:49:54;16.10;99.90
26503;DHT22;14177;51.520;6.764;2023-10-08T10:52:33;16.00;99.90
26503;DHT22;14177;51.520;6.764;2023-10-08T10:55:19;16.00;99.90
26503;DHT22;14177;51.520;6.764;2023-10-08T10:57:58;16.00;99.90
26503;DHT22;14177;51.520;6.764;2023-10-08T11:00:41;16.00;99.90
26503;DHT22;14177;51.520;6.764;2023-10-08T11:03:09;16.00;99.90
26503;DHT22;14177;51.520;6.764;2023-10-08T11:05:46;15.90;99.90
26503;DHT22;14177;51.520;6.764;2023-10-08T11:08:18;15.90;99.90
26503;DHT22;14177;51.520;6.764;2023-10-08T11:10:47;15.80;99.90
26503;DHT22;14177;51.520;6.764;2023-10-08T11:13:25;15.90;99.90
26503;DHT22;14177;51.520;6.764;2023-10-08T11:16:05;16.00;99.90
26503;DHT22;14177;51.520;6.764;2023-10-08T11:18:43;16.00;99.90
26503;DHT22;14177;51.520;6.764;2023-10-08T11:21:14;16.00;99.90
26503;DHT22;14177;51.520;6.764;2023-10-08T11:23:44;16.00;99.90
26503;DHT22;14177;51.520;6.764;2023-10-08T11:26:36;16.20;99.90
26503;DHT22;14177;51.520;6.764;2023-10-08T11:29:06;16.20;99.90
26503;DHT22;14177;51.520;6.764;2023-10-08T11:31:42;16.30;99.90
26503;DHT22;14177;51.520;6.764;2023-10-08T11:34:11;16.50;99.90
26503;DHT22;14177;51.520;6.764;2023-10-08T11:36:41;16.40;99.90
26503;DHT22;14177;51.520;6.764;2023-10-08T11:39:20;16.50;99.90
26503;DHT22;14177;51.520;6.764;2023-10-08T11:42:01;16.70;99.90
26503;DHT22;14177;51.520;6.764;2023-10-08T11:44:31;16.70;99.90
26503;DHT22;14177;51.520;6.764;2023-10-08T11:47:04;16.80;99.90
26503;DHT22;14177;51.520;6.764;2023-10-08T11:49:38;16.90;99.90
26503;DHT22;14177;51.520;6.764;2023-10-08T11:52:14;17.00;99.90
26503;DHT22;14177;51.520;6.764;2023-10-08T11:54:48;17.00;99.90
26503;DHT22;14177;51.520;6.764;2023-10-08T11:57:16;16.90;99.90
26503;DHT22;14177;51.520;6.764;2023-10-08T11:59:49;16.90;99.90
26503;DHT22;14177;51.520;6.764;2023-10-08T12:02:20;17.00;99.90
26503;DHT22;14177;51.520;6.764;2023-10-08T12:04:47;16.90;99.90
26503;DHT22;14177;51.520;6.764;2023-10-08T12:07:15;17.00;99.90
26503;DHT22;14177;51.520;6.764;2023-10-08T12:09:44;17.10;99.90
26503;DHT22;14177;51.520;6.764;2023-10-08T12:12:15;17.10;99.90
26503;DHT22;14177;51.520;6.764;2023-10-08T12:14:42;17.20;99.90
26503;DHT22;14177;51.520;6.764;2023-10-08T12:17:14;17.20;99.90
26503;DHT22;14177;51.520;6.764;2023-10-08T12:19:43;17.20;99.90
26503;DHT22;14177;51.520;6.764;2023-10-08T12:22:11;17.30;99.90
26503;DHT22;14177;51.520;6.764;2023-10-08T12:24:44;17.40;99.90
26503;DHT22;14177;51.520;6.764;2023-10-08T12:27:11;17.10;99.90
26503;DHT22;14177;51.520;6.764;2023-10-08T12:29:39;17.00;99.90
26503;DHT22;14177;51.520;6.764;2023-10-08T12:32:06;17.00;99.90
26503;DHT22;14177;51.520;6.764;2023-10-08T12:34:44;16.90;99.90
26503;DHT22;14177;51.520;6.764;2023-10-08T12:37:11;16.90;99.90
26503;DHT22;14177;51.520;6.764;2023-10-08T12:39:41;17.00;99.90
26503;DHT22;14177;51.520;6.764;2023-10-08T12:42:26;17.00;99.90
26503;DHT22;14177;51.520;6.764;2023-10-08T12:44:53;16.90;99.90
26503;DHT22;14177;51.520;6.764;2023-10-08T12:47:24;16.90;99.90
26503;DHT22;14177;51.520;6.764;2023-10-08T12:49:55;16.90;99.90
26503;DHT22;14177;51.520;6.764;2023-10-08T12:52:24;16.80;99.90
26503;DHT22;14177;51.520;6.764;2023-10-08T12:54:54;16.80;99.90
26503;DHT22;14177;51.520;6.764;2023-10-08T12:57:22;16.70;99.90
26503;DHT22;14177;51.520;6.764;2023-10-08T12:59:59;16.70;99.90
26503;DHT22;14177;51.520;6.764;2023-10-08T13:02:26;16.60;99.90
26503;DHT22;14177;51.520;6.764;2023-10-08T13:04:55;16.60;99.90
26503;DHT22;14177;51.520;6.764;2023-10-08T13:07:25;16.60;99.90
26503;DHT22;14177;51.520;6.764;2023-10-08T13:09:53;16.70;99.90
26503;DHT22;14177;51.520;6.764;2023-10-08T13:12:20;16.70;99.90
26503;DHT22;14177;51.520;6.764;2023-10-08T13:14:47;16.70;99.90
26503;DHT22;14177;51.520;6.764;2023-10-08T13:17:14;16.80;99.90
26503;DHT22;14177;51.520;6.764;2023-10-08T13:19:41;16.80;99.90
26503;DHT22;14177;51.520;6.764;2023-10-08T13:22:08;16.80;99.90
26503;DHT22;14177;51.520;6.764;2023-10-08T13:24:35;16.80;99.90
26503;DHT22;14177;51.520;6.764;2023-10-08T13:27:02;16.80;99.90
26503;DHT22;14177;51.520;6.764;2023-10-08T13:29:33;16.80;99.90
26503;DHT22;14177;51.520;6.764;2023-10-08T13:32:00;16.80;99.90
26503;DHT22;14177;51.520;6.764;2023-10-08T13:34:28;16.90;99.90
26503;DHT22;14177;51.520;6.764;2023-10-08T13:36:55;16.90;99.90
26503;DHT22;14177;51.520;6.764;2023-10-08T13:39:23;17.10;99.90
26503;DHT22;14177;51.520;6.764;2023-10-08T13:41:50;17.10;99.90
26503;DHT22;14177;51.520;6.764;2023-10-08T13:44:19;17.20;99.90
26503;DHT22;14177;51.520;6.764;2023-10-08T13:46:56;17.20;99.90
26503;DHT22;14177;51.520;6.764;2023-10-08T13:49:25;17.30;99.90
26503;DHT22;14177;51.520;6.764;2023-10-08T13:51:56;17.30;99.90
26503;DHT22;14177;51.520;6.764;2023-10-08T13:54:24;17.40;99.90
26503;DHT22;14177;51.520;6.764;2023-10-08T13:56:59;17.80;99.90
26503;DHT22;14177;51.520;6.764;2023-10-08T13:59:28;17.90;99.90
26503;DHT22;14177;51.520;6.764;2023-10-08T14:01:59;17.80;99.90
26503;DHT22;14177;51.520;6.764;2023-10-08T14:04:28;17.70;99.90
26503;DHT22;14177;51.520;6.764;2023-10-08T14:07:05;17.70;99.90
26503;DHT22;14177;51.520;6.764;2023-10-08T14:09:32;17.60;99.90
26503;DHT22;14177;51.520;6.764;2023-10-08T14:12:07;17.60;99.90
26503;DHT22;14177;51.520;6.764;2023-10-08T14:14:35;17.60;99.90
26503;DHT22;14177;51.520;6.764;2023-10-08T14:17:02;17.60;99.90
26503;DHT22;14177;51.520;6.764;2023-10-08T14:19:36;17.60;99.90
26503;DHT22;14177;51.520;6.764;2023-10-08T14:22:13;17.60;99.90
26503;DHT22;14177;51.520;6.764;2023-10-08T14:24:42;17.50;99.90
26503;DHT22;14177;51.520;6.764;2023-10-08T14:27:12;17.50;99.90
26503;DHT22;14177;51.520;6.764;2023-10-08T14:29:42;17.50;99.90
26503;DHT22;14177;51.520;6.764;2023-10-08T14:32:17;17.50;99.90
26503;DHT22;14177;51.520;6.764;2023-10-08T14:34:44;17.60;99.90
26503;DHT22;14177;51.520;6.764;2023-10-08T14:37:14;17.60;99.90
26503;DHT22;14177;51.520;6.764;2023-10-08T14:40:01;17.60;99.90
26503;DHT22;14177;51.520;6.764;2023-10-08T14:42:47;17.70;99.90
26503;DHT22;14177;51.520;6.764;2023-10-08T14:45:23;17.60;99.90
26503;DHT22;14177;51.520;6.764;2023-10-08T14:47:56;17.50;99.90
26503;DHT22;14177;51.520;6.764;2023-10-08T14:50:24;17.50;99.90
26503;DHT22;14177;51.520;6.764;2023-10-08T14:53:00;17.50;99.90
26503;DHT22;14177;51.520;6.764;2023-10-08T14:55:28;17.50;99.90
26503;DHT22;14177;51.520;6.764;2023-10-08T14:57:56;17.60;99.90
26503;DHT22;14177;51.520;6.764;2023-10-08T15:00:23;17.60;99.90
26503;DHT22;14177;51.520;6.764;2023-10-08T15:02:54;17.50;99.90
26503;DHT22;14177;51.520;6.764;2023-10-08T15:05:22;17.60;99.90
26503;DHT22;14177;51.520;6.764;2023-10-08T15:07:50;17.60;99.90
26503;DHT22;14177;51.520;6.764;2023-10-08T15:10:19;17.60;99.90
26503;DHT22;14177;51.520;6.764;2023-10-08T15:12:48;17.60;99.90
26503;DHT22;14177;51.520;6.764;2023-10-08T15:15:18;17.60;99.90
26503;DHT22;14177;51.520;6.764;2023-10-08T15:17:46;17.70;99.90
26503;DHT22;14177;51.520;6.764;2023-10-08T15:20:16;17.70;99.90
26503;DHT22;14177;51.520;6.764;2023-10-08T15:22:45;17.60;99.90
26503;DHT22;14177;51.520;6.764;2023-10-08T15:25:14;17.60;99.90
26503;DHT22;14177;51.520;6.764;2023-10-08T15:27:44;17.60;99.90
26503;DHT22;14177;51.520;6.764;2023-10-08T15:30:15;17.60;99.90
26503;DHT22;14177;51.520;6.764;2023-10-08T15:32:47;17.70;99.90
26503;DHT22;14177;51.520;6.764;2023-10-08T15:35:19;17.60;99.90
26503;DHT22;14177;51.520;6.764;2023-10-08T15:37:47;17.60;99.90
26503;DHT22;14177;51.520;6.764;2023-10-08T15:40:14;17.60;99.90
26503;DHT22;14177;51.520;6.764;2023-10-08T15:42:51;17.60;99.90
26503;DHT22;14177;51.520;6.764;2023-10-08T15:45:21;17.60;99.90
26503;DHT22;14177;51.520;6.764;2023-10-08T15:47:50;17.50;99.90
26503;DHT22;14177;51.520;6.764;2023-10-08T15:50:19;17.50;99.90
26503;DHT22;14177;51.520;6.764;2023-10-08T15:52:49;17.50;99.90
26503;DHT22;14177;51.520;6.764;2023-10-08T15:55:17;17.50;99.90
26503;DHT22;14177;51.520;6.764;2023-10-08T15:57:45;17.40;99.90
26503;DHT22;14177;51.520;6.764;2023-10-08T16:00:13;17.40;99.90
26503;DHT22;14177;51.520;6.764;2023-10-08T16:02:41;17.40;99.90
26503;DHT22;14177;51.520;6.764;2023-10-08T16:05:11;17.40;99.90
26503;DHT22;14177;51.520;6.764;2023-10-08T16:07:39;17.40;99.90
26503;DHT22;14177;51.520;6.764;2023-10-08T16:10:06;17.30;99.90